createdAt,value
2024-05-09T00:01:07.289Z,56.56
2024-05-09T00:05:11.533Z,56.70
2024-05-09T00:09:13.405Z,56.70
2024-05-09T00:13:17.358Z,56.72
2024-05-09T00:17:19.081Z,57.00
2024-05-09T00:21:21.424Z,56.57
2024-05-09T00:25:22.996Z,56.70
2024-05-09T00:29:28.056Z,56.85
2024-05-09T00:33:29.904Z,57.13
2024-05-09T00:37:31.800Z,57.22
2024-05-09T00:41:33.557Z,57.35
2024-05-09T00:45:35.836Z,57.21
2024-05-09T00:49:50.366Z,57.88
2024-05-09T00:53:52.373Z,57.37
2024-05-09T00:57:55.096Z,57.37
2024-05-09T01:01:59.208Z,57.31
2024-05-09T01:06:04.210Z,57.39
2024-05-09T01:10:11.489Z,57.77
2024-05-09T01:14:15.789Z,58.01
2024-05-09T01:18:17.799Z,58.07
2024-05-09T01:22:19.705Z,57.80
2024-05-09T01:26:21.614Z,58.28
2024-05-09T01:30:31.304Z,57.82
2024-05-09T01:34:53.256Z,58.37
2024-05-09T01:38:57.861Z,58.14
2024-05-09T01:42:59.686Z,58.51
2024-05-09T01:47:01.305Z,58.39
2024-05-09T01:51:03.094Z,58.65
2024-05-09T01:55:09.703Z,58.92
2024-05-09T01:59:25.818Z,58.86
2024-05-09T02:03:27.981Z,59.08
2024-05-09T02:07:29.816Z,59.08
2024-05-09T02:11:40.318Z,58.73
2024-05-09T02:15:42.313Z,59.84
2024-05-09T02:19:49.393Z,59.45
2024-05-09T02:24:08.959Z,59.24
2024-05-09T02:28:10.738Z,59.78
2024-05-09T02:32:12.609Z,59.37
2024-05-09T02:36:17.210Z,58.69
2024-05-09T02:40:25.618Z,59.46
2024-05-09T02:44:35.036Z,59.70
2024-05-09T02:48:36.890Z,59.28
2024-05-09T02:52:38.537Z,60.28
2024-05-09T02:56:40.102Z,59.79
2024-05-09T03:00:42.960Z,60.83
2024-05-09T03:04:45.169Z,59.57
2024-05-09T03:08:48.087Z,59.72
2024-05-09T03:12:49.665Z,59.81
2024-05-09T03:16:53.816Z,60.26
2024-05-09T03:20:55.471Z,60.34
2024-05-09T03:24:57.151Z,60.29
2024-05-09T03:28:59.172Z,60.17
2024-05-09T03:33:01.227Z,60.36
2024-05-09T03:37:03.204Z,60.88
2024-05-09T03:41:05.058Z,60.79
2024-05-09T03:45:06.625Z,60.50
2024-05-09T03:49:08.374Z,60.94
2024-05-09T03:53:11.629Z,60.83
2024-05-09T03:57:13.266Z,61.17
2024-05-09T04:01:14.950Z,60.67
2024-05-09T04:05:16.793Z,60.94
2024-05-09T04:09:18.413Z,61.44
2024-05-09T04:13:19.975Z,60.89
2024-05-09T04:17:21.582Z,61.38
2024-05-09T04:21:23.815Z,61.08
2024-05-09T04:25:25.341Z,61.22
2024-05-09T04:29:27.045Z,60.49
2024-05-09T04:33:29.755Z,60.91
2024-05-09T04:37:32.467Z,60.84
2024-05-09T04:41:34.066Z,60.43
2024-05-09T04:45:36.020Z,61.11
2024-05-09T04:49:37.770Z,60.72
2024-05-09T04:53:39.990Z,60.80
2024-05-09T04:57:41.766Z,60.92
2024-05-09T05:01:43.534Z,60.84
2024-05-09T05:05:46.145Z,59.46
2024-05-09T05:09:48.432Z,59.53
2024-05-09T05:13:50.197Z,59.19
2024-05-09T05:18:05.758Z,58.27
2024-05-09T05:22:07.572Z,56.99
2024-05-09T05:26:09.390Z,57.20
2024-05-09T05:30:17.611Z,57.45
2024-05-09T05:34:22.867Z,56.89
2024-05-09T05:38:27.434Z,54.37
2024-05-09T05:42:30.103Z,53.51
2024-05-09T05:46:31.959Z,53.24
2024-05-09T05:50:36.636Z,51.41
2024-05-09T05:54:40.188Z,49.28
2024-05-09T05:58:43.197Z,48.08
2024-05-09T06:02:45.048Z,47.05
2024-05-09T06:06:46.747Z,45.87
2024-05-09T06:10:48.523Z,45.39
2024-05-09T06:14:50.244Z,42.92
2024-05-09T06:18:52.219Z,42.50
2024-05-09T06:22:53.944Z,41.85
2024-05-09T06:26:55.669Z,41.61
2024-05-09T06:30:57.284Z,41.17
2024-05-09T06:34:58.914Z,39.19
2024-05-09T06:39:00.555Z,39.40
2024-05-09T06:43:04.139Z,38.04
2024-05-09T06:47:05.777Z,36.83
2024-05-09T06:51:07.456Z,36.46
2024-05-09T06:55:09.135Z,36.36
2024-05-09T06:59:10.854Z,35.99
2024-05-09T07:03:16.869Z,37.24
2024-05-09T07:07:20.076Z,35.64
2024-05-09T07:11:21.774Z,34.57
2024-05-09T07:15:23.495Z,33.51
2024-05-09T07:19:25.195Z,32.61
2024-05-09T07:23:28.282Z,32.47
2024-05-09T07:27:30.045Z,31.66
2024-05-09T07:31:34.919Z,31.31
2024-05-09T07:39:54.823Z,30.48
2024-05-09T07:43:56.532Z,29.78
2024-05-09T07:49:44.348Z,30.46
2024-05-09T07:53:30.378Z,29.71
2024-05-09T07:56:46.840Z,29.10
2024-05-09T08:00:48.654Z,29.58
2024-05-09T08:04:50.360Z,29.73
2024-05-09T08:08:52.227Z,27.64
2024-05-09T08:12:54.254Z,29.72
2024-05-09T08:16:55.974Z,29.15
2024-05-09T08:20:58.274Z,29.15
2024-05-09T08:25:00.025Z,29.68
2024-05-09T08:29:01.761Z,29.15
2024-05-09T08:33:04.730Z,27.20
2024-05-09T08:37:13.122Z,29.77
2024-05-09T08:41:21.303Z,26.30
2024-05-09T08:45:23.275Z,25.35
2024-05-09T08:49:26.405Z,26.75
2024-05-09T08:53:28.170Z,27.18
2024-05-09T08:57:35.812Z,25.21
2024-05-09T09:01:41.611Z,24.43
2024-05-09T09:05:54.278Z,24.39
2024-05-09T09:09:56.432Z,23.85
2024-05-09T09:13:58.154Z,22.61
2024-05-09T09:18:00.873Z,21.67
2024-05-09T09:22:03.013Z,21.24
2024-05-09T09:26:05.114Z,22.51
2024-05-09T09:30:15.507Z,21.45
2024-05-09T09:34:27.978Z,19.68
2024-05-09T09:38:31.598Z,19.47
2024-05-09T09:42:35.371Z,19.17
2024-05-09T09:46:38.422Z,19.83
2024-05-09T09:50:41.611Z,19.12
2024-05-09T09:54:45.258Z,20.13
2024-05-09T09:58:48.360Z,18.71
2024-05-09T10:02:50.018Z,16.77
2024-05-09T10:06:59.546Z,16.79
2024-05-09T10:11:04.453Z,16.55
2024-05-09T10:15:09.078Z,16.31
2024-05-09T10:19:30.998Z,15.14
2024-05-09T10:23:34.540Z,15.25
2024-05-09T10:27:36.420Z,14.74
2024-05-09T10:31:41.602Z,15.12
2024-05-09T10:35:51.740Z,16.11
2024-05-09T10:39:57.105Z,14.09
2024-05-09T10:43:58.778Z,16.66
2024-05-09T10:48:00.803Z,15.82
2024-05-09T10:52:03.971Z,14.73
2024-05-09T10:56:05.972Z,15.33
2024-05-09T11:00:15.603Z,17.02
2024-05-09T11:04:28.297Z,17.20
2024-05-09T11:08:32.129Z,17.83
2024-05-09T11:12:34.068Z,18.33
2024-05-09T11:16:41.362Z,17.38
2024-05-09T11:20:43.484Z,18.78
2024-05-09T11:24:45.456Z,16.96
2024-05-09T11:28:47.586Z,17.04
2024-05-09T11:32:51.820Z,21.81
2024-05-09T11:36:56.839Z,21.43
2024-05-09T11:40:58.737Z,20.99
2024-05-09T11:45:00.480Z,19.64
2024-05-09T11:49:02.539Z,18.11
2024-05-09T11:53:04.628Z,20.42
2024-05-09T11:57:06.414Z,21.65
2024-05-09T12:01:08.242Z,21.54
2024-05-09T12:05:10.234Z,21.60
2024-05-09T12:09:11.899Z,20.33
2024-05-09T12:13:13.749Z,19.93
2024-05-09T12:17:15.560Z,22.40
2024-05-09T12:21:17.512Z,21.91
2024-05-09T12:25:19.255Z,22.77
2024-05-09T12:29:21.207Z,22.87
2024-05-09T12:33:22.873Z,22.72
2024-05-09T12:37:24.797Z,22.87
2024-05-09T12:41:26.363Z,23.22
2024-05-09T12:45:28.212Z,23.71
2024-05-09T12:49:30.175Z,24.22
2024-05-09T12:53:31.902Z,26.90
2024-05-09T12:57:33.830Z,30.30
2024-05-09T13:01:35.642Z,27.07
2024-05-09T13:05:37.416Z,25.88
2024-05-09T13:09:39.660Z,25.07
2024-05-09T13:13:41.376Z,24.29
2024-05-09T13:17:43.282Z,24.25
2024-05-09T13:21:51.793Z,24.01
2024-05-09T13:25:53.538Z,23.69
2024-05-09T13:29:57.329Z,27.81
2024-05-09T13:34:01.113Z,30.35
2024-05-09T13:38:03.451Z,28.10
2024-05-09T13:42:06.066Z,26.72
2024-05-09T13:46:09.293Z,27.44
2024-05-09T13:50:16.936Z,26.97
2024-05-09T13:54:25.684Z,28.03
2024-05-09T13:58:27.372Z,26.18
2024-05-09T14:02:30.909Z,25.75
2024-05-09T14:06:32.720Z,26.22
2024-05-09T14:10:35.607Z,25.52
2024-05-09T14:14:37.277Z,25.62
2024-05-09T14:18:41.302Z,27.21
2024-05-09T14:22:42.950Z,25.89
2024-05-09T14:26:44.659Z,25.86
2024-05-09T14:30:46.363Z,25.16
2024-05-09T14:34:48.088Z,25.18
2024-05-09T14:38:49.794Z,26.34
2024-05-09T14:42:51.563Z,25.68
2024-05-09T14:46:53.301Z,25.61
2024-05-09T14:50:55.068Z,25.76
2024-05-09T14:55:00.345Z,25.43
2024-05-09T14:59:03.325Z,25.32
2024-05-09T15:03:05.538Z,25.34
2024-05-09T15:07:08.349Z,25.79
2024-05-09T15:11:11.958Z,25.33
2024-05-09T15:15:13.697Z,25.38
2024-05-09T15:19:15.362Z,25.96
2024-05-09T15:23:17.325Z,25.73
2024-05-09T15:27:19.145Z,25.85
2024-05-09T15:31:20.884Z,26.10
2024-05-09T15:35:38.255Z,25.77
2024-05-09T15:39:41.776Z,26.96
2024-05-09T15:43:43.417Z,28.13
2024-05-09T15:47:45.382Z,29.61
2024-05-09T15:51:48.602Z,30.30
2024-05-09T15:55:50.354Z,29.92
2024-05-09T15:59:52.192Z,28.89
2024-05-09T16:03:54.081Z,28.93
2024-05-09T16:07:56.047Z,29.62
2024-05-09T16:11:57.696Z,28.49
2024-05-09T16:16:00.285Z,27.51
2024-05-09T16:20:03.879Z,27.89
2024-05-09T16:24:08.977Z,26.74
2024-05-09T16:28:16.199Z,28.23
2024-05-09T16:32:22.607Z,27.97
2024-05-09T16:36:26.617Z,27.45
2024-05-09T16:40:36.316Z,27.87
2024-05-09T16:44:44.372Z,28.00
2024-05-09T16:48:50.250Z,28.46
2024-05-09T16:52:52.122Z,28.26
2024-05-09T16:56:53.864Z,28.70
2024-05-09T17:00:55.716Z,28.83
2024-05-09T17:04:57.382Z,29.48
2024-05-09T17:09:05.272Z,29.38
2024-05-09T17:13:10.455Z,29.61
2024-05-09T17:17:12.476Z,30.42
2024-05-09T17:21:15.726Z,30.11
2024-05-09T17:25:17.554Z,30.69
2024-05-09T17:29:21.768Z,30.71
2024-05-09T17:33:23.475Z,30.93
2024-05-09T17:37:28.021Z,31.77
2024-05-09T17:41:29.642Z,31.97
2024-05-09T17:45:31.389Z,31.40
2024-05-09T17:49:33.549Z,32.26
2024-05-09T17:53:35.463Z,31.55
2024-05-09T17:57:37.201Z,32.18
2024-05-09T18:01:38.970Z,31.84
2024-05-09T18:05:41.809Z,32.45
2024-05-09T18:09:44.672Z,32.36
2024-05-09T18:13:50.395Z,32.28
2024-05-09T18:17:52.386Z,32.42
2024-05-09T18:21:54.479Z,32.77
2024-05-09T18:25:57.223Z,32.66
2024-05-09T18:29:58.883Z,33.20
2024-05-09T18:34:00.777Z,33.28
2024-05-09T18:38:07.552Z,33.25
2024-05-09T18:42:12.971Z,33.49
2024-05-09T18:46:14.619Z,33.98
2024-05-09T18:50:24.684Z,34.02
2024-05-09T18:54:33.985Z,34.79
2024-05-09T18:58:35.763Z,35.12
2024-05-09T19:02:37.761Z,35.23
2024-05-09T19:06:41.044Z,35.01
2024-05-09T19:11:11.877Z,35.39
2024-05-09T19:15:13.661Z,35.90
2024-05-09T19:19:15.567Z,35.98
2024-05-09T19:23:17.393Z,35.63
2024-05-09T19:27:19.161Z,36.34
2024-05-09T19:31:21.229Z,36.59
2024-05-09T19:35:22.873Z,36.61
2024-05-09T19:39:25.088Z,37.03
2024-05-09T19:43:27.260Z,36.69
2024-05-09T19:47:29.244Z,37.13
2024-05-09T19:51:32.384Z,36.97
2024-05-09T19:55:35.090Z,37.17
2024-05-09T19:59:36.967Z,37.36
2024-05-09T20:03:46.391Z,37.03
2024-05-09T20:07:48.043Z,36.96
2024-05-09T20:11:49.727Z,38.33
2024-05-09T20:15:51.595Z,37.41
2024-05-09T20:19:53.455Z,37.70
2024-05-09T20:23:55.157Z,38.04
2024-05-09T20:27:56.988Z,37.73
2024-05-09T20:31:58.723Z,37.55
2024-05-09T20:36:02.200Z,37.87
2024-05-09T20:40:07.990Z,37.79
2024-05-09T20:44:11.832Z,38.30
2024-05-09T20:48:13.845Z,38.20
2024-05-09T20:52:15.809Z,38.13
2024-05-09T20:56:22.154Z,38.75
2024-05-09T21:00:30.337Z,39.16
2024-05-09T21:04:42.338Z,39.26
2024-05-09T21:08:44.034Z,39.55
2024-05-09T21:12:45.936Z,38.88
2024-05-09T21:16:47.668Z,39.78
2024-05-09T21:20:49.402Z,39.81
2024-05-09T21:24:51.129Z,41.02
2024-05-09T21:28:52.902Z,40.91
2024-05-09T21:32:54.776Z,40.54
2024-05-09T21:36:58.048Z,40.85
2024-05-09T21:40:59.752Z,41.64
2024-05-09T21:45:06.198Z,40.81
2024-05-09T21:49:08.158Z,41.20
2024-05-09T21:53:11.196Z,41.77
2024-05-09T21:57:14.559Z,41.63
2024-05-09T22:01:16.349Z,42.00
2024-05-09T22:05:18.187Z,42.46
2024-05-09T22:09:19.888Z,42.20
2024-05-09T22:13:21.837Z,42.14
2024-05-09T22:17:25.626Z,42.63
2024-05-09T22:21:27.505Z,42.92
2024-05-09T22:25:30.900Z,43.21
2024-05-09T22:29:33.400Z,43.41
2024-05-09T22:33:35.296Z,43.57
2024-05-09T22:37:37.432Z,43.94
2024-05-09T22:41:40.348Z,44.11
2024-05-09T22:45:42.146Z,44.18
2024-05-09T22:49:43.798Z,44.60
2024-05-09T22:53:45.446Z,45.00
2024-05-09T22:57:47.162Z,45.11
2024-05-09T23:01:48.844Z,44.95
2024-05-09T23:05:50.587Z,45.33
2024-05-09T23:09:52.294Z,45.85
2024-05-09T23:13:53.821Z,46.18
2024-05-09T23:17:55.803Z,45.94
2024-05-09T23:21:57.831Z,46.28
2024-05-09T23:25:59.651Z,46.65
2024-05-09T23:30:01.236Z,46.50
2024-05-09T23:34:02.889Z,46.87
2024-05-09T23:38:04.999Z,47.05
2024-05-09T23:42:06.802Z,47.46
2024-05-09T23:46:10.985Z,47.28
2024-05-09T23:50:17.058Z,47.50
2024-05-09T23:54:25.201Z,47.15
2024-05-09T23:58:30.029Z,47.51
